createdAt,value
2019-02-15T00:00:45.891Z,4.78
2019-02-15T00:03:14.371Z,5.05
2019-02-15T00:05:42.696Z,4.62
2019-02-15T00:08:11.196Z,5.50
2019-02-15T00:10:39.788Z,5.03
2019-02-15T00:13:13.519Z,4.62
2019-02-15T00:15:38.149Z,5.10
2019-02-15T00:18:08.096Z,5.15
2019-02-15T00:20:40.899Z,5.45
2019-02-15T00:23:09.297Z,5.10
2019-02-15T00:25:37.795Z,5.87
2019-02-15T00:28:06.085Z,4.97
2019-02-15T00:30:34.421Z,5.30
2019-02-15T00:33:02.732Z,5.30
2019-02-15T00:35:31.331Z,5.60
2019-02-15T00:37:59.911Z,5.40
2019-02-15T00:40:28.228Z,4.83
2019-02-15T00:42:56.731Z,5.28
2019-02-15T00:45:29.286Z,4.85
2019-02-15T00:48:02.337Z,4.67
2019-02-15T00:50:32.714Z,4.53
2019-02-15T00:53:05.511Z,4.95
2019-02-15T00:55:38.491Z,4.62
2019-02-15T00:58:14.443Z,4.50
2019-02-15T01:00:59.622Z,4.55
2019-02-15T01:06:10.852Z,4.15
2019-02-15T01:08:43.369Z,4.45
2019-02-15T01:11:13.581Z,4.00
2019-02-15T01:13:41.971Z,4.15
2019-02-15T01:16:10.272Z,4.30
2019-02-15T01:18:38.767Z,3.83
2019-02-15T01:21:07.080Z,3.92
2019-02-15T01:23:35.658Z,4.08
2019-02-15T01:26:17.595Z,4.20
2019-02-15T01:28:53.584Z,3.77
2019-02-15T01:31:26.347Z,4.22
2019-02-15T01:34:11.620Z,4.10
2019-02-15T01:36:41.745Z,3.85
2019-02-15T01:39:20.805Z,4.30
2019-02-15T01:42:07.137Z,4.12
2019-02-15T01:44:39.699Z,4.25
2019-02-15T01:47:09.755Z,4.00
2019-02-15T01:49:38.489Z,3.80
2019-02-15T01:52:06.989Z,3.70
2019-02-15T01:54:35.567Z,3.60
2019-02-15T01:57:04.141Z,3.50
2019-02-15T01:59:32.715Z,3.40
2019-02-15T02:02:01.299Z,3.80
2019-02-15T02:04:29.612Z,3.30
2019-02-15T02:06:57.937Z,3.75
2019-02-15T02:09:26.245Z,3.25
2019-02-15T02:11:54.566Z,3.02
2019-02-15T02:14:22.894Z,3.10
2019-02-15T02:16:51.299Z,3.22
2019-02-15T02:19:19.596Z,2.87
2019-02-15T02:21:47.917Z,3.30
2019-02-15T02:24:16.386Z,3.08
2019-02-15T02:26:44.757Z,3.15
2019-02-15T02:29:13.233Z,3.52
2019-02-15T02:31:41.717Z,3.00
2019-02-15T02:34:10.408Z,3.50
2019-02-15T02:36:50.132Z,3.08
2019-02-15T02:39:18.599Z,3.20
2019-02-15T02:41:46.961Z,3.17
2019-02-15T02:44:15.284Z,2.90
2019-02-15T02:46:44.254Z,3.62
2019-02-15T02:49:12.651Z,3.75
2019-02-15T02:51:41.019Z,3.20
2019-02-15T02:54:09.351Z,3.65
2019-02-15T02:56:38.097Z,3.72
2019-02-15T02:59:06.429Z,3.15
2019-02-15T03:01:34.896Z,3.05
2019-02-15T03:04:03.816Z,3.40
2019-02-15T03:06:32.402Z,3.20
2019-02-15T03:09:00.773Z,3.30
2019-02-15T03:11:29.290Z,3.58
2019-02-15T03:13:57.831Z,3.58
2019-02-15T03:16:26.225Z,3.08
2019-02-15T03:18:54.537Z,3.42
2019-02-15T03:21:22.871Z,3.40
2019-02-15T03:23:51.174Z,3.12
2019-02-15T03:26:19.497Z,3.47
2019-02-15T03:28:47.812Z,3.37
2019-02-15T03:31:16.214Z,3.15
2019-02-15T03:33:44.676Z,2.92
2019-02-15T03:36:14.629Z,3.37
2019-02-15T03:38:47.558Z,3.42
2019-02-15T03:41:29.857Z,3.27
2019-02-15T03:43:58.193Z,3.27
2019-02-15T03:46:26.556Z,3.55
2019-02-15T03:48:55.327Z,3.47
2019-02-15T03:51:23.709Z,3.33
2019-02-15T03:53:52.486Z,3.83
2019-02-15T03:56:21.240Z,3.85
2019-02-15T03:58:49.565Z,3.70
2019-02-15T04:01:37.308Z,3.25
2019-02-15T04:04:05.974Z,3.20
2019-02-15T04:06:34.354Z,3.67
2019-02-15T04:09:03.016Z,3.15
2019-02-15T04:11:31.352Z,3.65
2019-02-15T04:14:00.469Z,3.90
2019-02-15T04:16:29.033Z,3.72
2019-02-15T04:18:57.545Z,3.75
2019-02-15T04:21:25.853Z,3.62
2019-02-15T04:23:54.269Z,3.37
2019-02-15T04:26:22.771Z,3.12
2019-02-15T04:28:51.369Z,3.92
2019-02-15T04:31:19.784Z,4.05
2019-02-15T04:33:48.335Z,4.67
2019-02-15T04:36:16.725Z,4.67
2019-02-15T04:38:45.045Z,4.50
2019-02-15T04:41:13.407Z,4.85
2019-02-15T04:43:41.712Z,5.03
2019-02-15T04:46:10.116Z,4.40
2019-02-15T04:48:38.444Z,5.00
2019-02-15T04:51:07.034Z,4.62
2019-02-15T04:53:35.412Z,5.45
2019-02-15T04:56:03.981Z,5.67
2019-02-15T04:58:32.291Z,5.62
2019-02-15T05:01:00.609Z,6.22
2019-02-15T05:03:29.454Z,5.97
2019-02-15T05:05:58.037Z,6.62
2019-02-15T05:08:26.637Z,7.50
2019-02-15T05:10:55.026Z,7.80
2019-02-15T05:13:23.606Z,7.83
2019-02-15T05:15:51.923Z,8.05
2019-02-15T05:18:20.526Z,8.45
2019-02-15T05:20:48.905Z,8.35
2019-02-15T05:23:17.685Z,8.95
2019-02-15T05:25:46.011Z,8.65
2019-02-15T05:28:14.395Z,8.45
2019-02-15T05:30:43.140Z,7.70
2019-02-15T05:33:11.499Z,7.60
2019-02-15T05:35:40.052Z,7.67
2019-02-15T05:38:08.540Z,7.20
2019-02-15T05:40:36.866Z,8.38
2019-02-15T05:43:05.215Z,8.25
2019-02-15T05:45:33.598Z,7.17
2019-02-15T05:48:01.900Z,7.78
2019-02-15T05:50:30.586Z,7.58
2019-02-15T05:52:59.339Z,7.08
2019-02-15T05:55:27.908Z,7.60
2019-02-15T05:57:56.277Z,7.25
2019-02-15T06:00:24.714Z,7.53
2019-02-15T06:02:53.017Z,6.42
2019-02-15T06:05:21.330Z,7.45
2019-02-15T06:07:49.929Z,7.15
2019-02-15T06:10:18.596Z,7.37
2019-02-15T06:12:47.095Z,6.70
2019-02-15T06:15:15.838Z,6.62
2019-02-15T06:17:44.457Z,6.87
2019-02-15T06:20:12.844Z,6.60
2019-02-15T06:22:41.284Z,6.90
2019-02-15T06:25:09.667Z,5.65
2019-02-15T06:27:37.997Z,7.33
2019-02-15T06:30:08.256Z,7.03
2019-02-15T06:32:36.586Z,6.90
2019-02-15T06:35:05.242Z,7.10
2019-02-15T06:37:33.746Z,7.10
2019-02-15T06:40:02.266Z,7.05
2019-02-15T06:42:30.817Z,7.53
2019-02-15T06:44:59.306Z,6.58
2019-02-15T06:47:27.900Z,5.75
2019-02-15T06:49:56.550Z,6.75
2019-02-15T06:52:24.872Z,7.08
2019-02-15T06:54:53.216Z,7.30
2019-02-15T06:57:21.730Z,7.12
2019-02-15T06:59:51.998Z,6.95
2019-02-15T07:02:24.800Z,6.58
2019-02-15T07:05:11.216Z,6.55
2019-02-15T07:07:39.524Z,6.53
2019-02-15T07:10:07.896Z,6.47
2019-02-15T07:12:36.302Z,7.67
2019-02-15T07:15:05.874Z,6.72
2019-02-15T07:17:34.468Z,7.08
2019-02-15T07:20:03.017Z,6.65
2019-02-15T07:22:31.354Z,7.60
2019-02-15T07:24:59.747Z,8.03
2019-02-15T07:27:28.075Z,8.18
2019-02-15T07:29:56.383Z,8.53
2019-02-15T07:32:24.893Z,9.25
2019-02-15T07:34:53.198Z,8.70
2019-02-15T07:37:21.549Z,9.10
2019-02-15T07:39:49.851Z,8.45
2019-02-15T07:42:18.453Z,9.00
2019-02-15T07:44:46.968Z,9.55
2019-02-15T07:47:15.624Z,9.15
2019-02-15T07:49:44.014Z,10.20
2019-02-15T07:52:12.625Z,9.95
2019-02-15T07:54:41.163Z,9.73
2019-02-15T07:57:09.651Z,9.48
2019-02-15T07:59:38.136Z,9.43
2019-02-15T08:02:06.466Z,9.05
2019-02-15T08:04:34.786Z,10.08
2019-02-15T08:07:03.193Z,9.98
2019-02-15T08:09:31.750Z,9.63
2019-02-15T08:12:00.625Z,8.88
2019-02-15T08:14:29.281Z,8.80
2019-02-15T08:16:57.827Z,9.08
2019-02-15T08:19:26.699Z,8.28
2019-02-15T08:21:55.376Z,9.88
2019-02-15T08:24:24.141Z,9.58
2019-02-15T08:26:52.727Z,9.00
2019-02-15T08:29:21.069Z,8.98
2019-02-15T08:31:49.430Z,9.63
2019-02-15T08:34:17.940Z,9.18
2019-02-15T08:36:46.252Z,9.13
2019-02-15T08:39:14.762Z,9.28
2019-02-15T08:42:00.183Z,8.68
2019-02-15T08:44:13.825Z,9.00
2019-02-15T08:46:42.148Z,12.33
2019-02-15T08:49:10.918Z,9.10
2019-02-15T08:51:39.237Z,10.18
2019-02-15T08:54:07.557Z,7.85
2019-02-15T08:56:35.865Z,8.70
2019-02-15T08:59:04.449Z,8.35
2019-02-15T09:01:32.799Z,7.12
2019-02-15T09:04:01.269Z,7.92
2019-02-15T09:06:29.857Z,7.08
2019-02-15T09:08:58.165Z,7.40
2019-02-15T09:11:26.942Z,7.87
2019-02-15T09:13:55.271Z,7.22
2019-02-15T09:16:23.602Z,6.87
2019-02-15T09:18:52.452Z,7.15
2019-02-15T09:21:21.213Z,7.40
2019-02-15T09:23:49.687Z,7.55
2019-02-15T09:26:18.523Z,6.25
2019-02-15T09:28:48.873Z,6.87
2019-02-15T09:31:17.378Z,4.60
2019-02-15T09:33:45.708Z,4.87
2019-02-15T09:36:14.297Z,5.05
2019-02-15T09:38:42.619Z,5.10
2019-02-15T09:41:11.115Z,7.45
2019-02-15T09:43:39.594Z,10.53
2019-02-15T09:46:07.926Z,7.50
2019-02-15T09:48:36.429Z,7.85
2019-02-15T09:51:04.743Z,8.88
2019-02-15T09:53:33.515Z,7.28
2019-02-15T09:56:01.831Z,6.87
2019-02-15T09:58:30.161Z,6.28
2019-02-15T10:00:58.657Z,6.25
2019-02-15T10:03:26.993Z,5.47
2019-02-15T10:05:55.309Z,5.37
2019-02-15T10:08:23.927Z,4.03
2019-02-15T10:10:52.545Z,3.90
2019-02-15T10:13:21.138Z,4.70
2019-02-15T10:15:49.529Z,4.55
2019-02-15T10:18:17.842Z,3.80
2019-02-15T10:20:46.157Z,4.62
2019-02-15T10:23:14.493Z,9.63
2019-02-15T10:25:43.061Z,6.65
2019-02-15T10:28:11.394Z,4.75
2019-02-15T10:30:39.937Z,3.75
2019-02-15T10:33:08.264Z,4.78
2019-02-15T10:35:37.410Z,5.60
2019-02-15T10:38:05.806Z,5.53
2019-02-15T10:40:34.176Z,4.47
2019-02-15T10:43:02.704Z,6.03
2019-02-15T10:45:31.276Z,5.47
2019-02-15T10:47:59.603Z,4.28
2019-02-15T10:50:27.917Z,4.90
2019-02-15T10:52:56.502Z,5.17
2019-02-15T10:55:24.993Z,5.85
2019-02-15T10:57:53.323Z,5.37
2019-02-15T11:00:22.216Z,5.30
2019-02-15T11:02:50.875Z,5.50
2019-02-15T11:05:19.264Z,5.35
2019-02-15T11:07:47.601Z,4.72
2019-02-15T11:10:16.354Z,5.42
2019-02-15T11:12:44.944Z,4.37
2019-02-15T11:15:15.552Z,4.47
2019-02-15T11:17:44.135Z,4.15
2019-02-15T11:20:14.758Z,3.50
2019-02-15T11:22:43.329Z,3.87
2019-02-15T11:25:11.921Z,4.20
2019-02-15T11:27:40.250Z,5.03
2019-02-15T11:30:11.820Z,4.15
2019-02-15T11:32:40.634Z,4.05
2019-02-15T11:35:15.017Z,5.08
2019-02-15T11:37:43.343Z,4.87
2019-02-15T11:40:13.961Z,4.28
2019-02-15T11:42:42.432Z,4.62
2019-02-15T11:45:14.327Z,3.60
2019-02-15T11:47:42.834Z,4.25
2019-02-15T11:50:13.243Z,3.85
2019-02-15T11:52:41.644Z,3.90
2019-02-15T11:55:10.809Z,4.10
2019-02-15T11:57:39.219Z,4.22
2019-02-15T12:00:14.850Z,3.75
2019-02-15T12:02:43.311Z,3.92
2019-02-15T12:05:11.625Z,5.05
2019-02-15T12:07:39.946Z,4.42
2019-02-15T12:10:10.106Z,3.77
2019-02-15T12:12:38.678Z,4.20
2019-02-15T12:15:08.643Z,4.53
2019-02-15T12:17:37.039Z,4.65
2019-02-15T12:20:08.621Z,3.98
2019-02-15T12:22:37.127Z,4.60
2019-02-15T12:25:06.199Z,4.35
2019-02-15T12:27:34.609Z,4.25
2019-02-15T12:30:03.081Z,3.80
2019-02-15T12:32:31.954Z,3.60
2019-02-15T12:35:00.541Z,3.37
2019-02-15T12:37:28.959Z,3.70
2019-02-15T12:39:57.346Z,3.75
2019-02-15T12:42:25.850Z,3.47
2019-02-15T12:44:54.815Z,3.67
2019-02-15T12:47:23.148Z,4.20
2019-02-15T12:49:51.525Z,3.72
2019-02-15T12:52:19.860Z,4.65
2019-02-15T12:54:48.453Z,4.50
2019-02-15T12:57:16.797Z,4.92
2019-02-15T12:59:45.168Z,4.83
2019-02-15T13:02:13.551Z,4.85
2019-02-15T13:04:41.890Z,5.00
2019-02-15T13:07:10.205Z,6.00
2019-02-15T13:09:38.694Z,5.80
2019-02-15T13:12:07.078Z,6.00
2019-02-15T13:14:35.384Z,6.22
2019-02-15T13:17:03.982Z,6.83
2019-02-15T13:19:32.364Z,5.90
2019-02-15T13:22:00.886Z,6.55
2019-02-15T13:24:29.211Z,6.17
2019-02-15T13:26:57.526Z,6.12
2019-02-15T13:29:26.027Z,6.80
2019-02-15T13:31:54.663Z,5.40
2019-02-15T13:34:23.255Z,6.25
2019-02-15T13:36:51.914Z,6.20
2019-02-15T13:39:20.253Z,6.00
2019-02-15T13:41:49.042Z,3.80
2019-02-15T13:44:17.934Z,4.10
2019-02-15T13:46:46.378Z,4.10
2019-02-15T13:49:14.983Z,4.03
2019-02-15T13:51:43.579Z,4.83
2019-02-15T13:54:12.104Z,4.00
2019-02-15T13:56:41.087Z,3.95
2019-02-15T13:59:09.428Z,4.50
2019-02-15T14:01:37.797Z,4.92
2019-02-15T14:04:06.319Z,4.53
2019-02-15T14:06:34.931Z,4.35
2019-02-15T14:09:04.633Z,4.50
2019-02-15T14:11:33.340Z,4.20
2019-02-15T14:14:01.665Z,4.67
2019-02-15T14:16:30.256Z,5.05
2019-02-15T14:18:58.908Z,4.80
2019-02-15T14:21:27.665Z,5.28
2019-02-15T14:23:56.017Z,4.70
2019-02-15T14:26:24.358Z,7.37
2019-02-15T14:28:52.721Z,5.20
2019-02-15T14:31:21.119Z,5.53
2019-02-15T14:33:49.449Z,5.17
2019-02-15T14:36:17.876Z,5.60
2019-02-15T14:38:46.489Z,6.00
2019-02-15T14:41:14.861Z,5.67
2019-02-15T14:43:43.444Z,5.50
2019-02-15T14:46:11.876Z,6.42
2019-02-15T14:48:40.568Z,5.80
2019-02-15T14:51:09.065Z,6.53
2019-02-15T14:53:37.421Z,5.28
2019-02-15T14:56:05.825Z,5.40
2019-02-15T14:58:34.129Z,5.92
2019-02-15T15:01:02.534Z,5.65
2019-02-15T15:03:30.859Z,5.83
2019-02-15T15:05:59.337Z,5.03
2019-02-15T15:08:27.660Z,5.97
2019-02-15T15:10:56.271Z,5.53
2019-02-15T15:13:24.586Z,5.72
2019-02-15T15:15:53.241Z,5.85
2019-02-15T15:18:21.547Z,5.72
2019-02-15T15:20:49.949Z,5.85
2019-02-15T15:23:18.265Z,3.72
2019-02-15T15:25:46.760Z,2.90
2019-02-15T15:28:15.236Z,3.02
2019-02-15T15:30:43.644Z,3.42
2019-02-15T15:33:12.032Z,3.40
2019-02-15T15:35:40.355Z,3.47
2019-02-15T15:38:09.283Z,3.17
2019-02-15T15:40:37.614Z,3.60
2019-02-15T15:43:05.958Z,3.70
2019-02-15T15:45:34.343Z,4.80
2019-02-15T15:48:02.726Z,4.53
2019-02-15T15:50:31.071Z,4.78
2019-02-15T15:52:59.423Z,4.70
2019-02-15T15:55:28.295Z,4.62
2019-02-15T15:57:56.799Z,5.45
2019-02-15T16:00:25.333Z,4.92
2019-02-15T16:02:53.883Z,5.28
2019-02-15T16:05:22.211Z,4.87
2019-02-15T16:07:50.629Z,5.00
2019-02-15T16:10:19.024Z,5.70
2019-02-15T16:12:47.357Z,5.78
2019-02-15T16:15:15.678Z,7.62
2019-02-15T16:17:44.072Z,6.28
2019-02-15T16:20:13.240Z,5.90
2019-02-15T16:22:41.636Z,5.58
2019-02-15T16:25:10.394Z,5.67
2019-02-15T16:27:38.749Z,5.22
2019-02-15T16:30:12.687Z,6.12
2019-02-15T16:32:41.295Z,6.10
2019-02-15T16:35:09.941Z,6.35
2019-02-15T16:37:38.497Z,5.92
2019-02-15T16:40:11.746Z,6.80
2019-02-15T16:42:39.963Z,6.35
2019-02-15T16:45:11.056Z,6.87
2019-02-15T16:47:39.379Z,7.03
2019-02-15T16:50:08.349Z,7.42
2019-02-15T16:52:36.673Z,6.67
2019-02-15T16:55:12.736Z,6.87
2019-02-15T16:57:37.210Z,8.35
2019-02-15T17:00:08.154Z,6.90
2019-02-15T17:02:36.684Z,8.05
2019-02-15T17:05:06.295Z,8.03
2019-02-15T17:07:34.688Z,8.25
2019-02-15T17:10:03.014Z,9.15
2019-02-15T17:12:31.498Z,7.50
2019-02-15T17:15:00.027Z,7.55
2019-02-15T17:17:28.520Z,7.33
2019-02-15T17:19:57.257Z,8.13
2019-02-15T17:22:25.586Z,8.03
2019-02-15T17:24:53.967Z,6.90
2019-02-15T17:27:22.459Z,7.75
2019-02-15T17:29:50.811Z,7.55
2019-02-15T17:32:19.188Z,8.13
2019-02-15T17:34:47.492Z,7.45
2019-02-15T17:37:15.833Z,8.20
2019-02-15T17:39:44.129Z,7.85
2019-02-15T17:42:12.623Z,8.55
2019-02-15T17:44:42.783Z,8.03
2019-02-15T17:47:19.790Z,8.18
2019-02-15T17:49:48.182Z,8.35
2019-02-15T17:52:16.574Z,8.68
2019-02-15T17:54:45.358Z,8.55
2019-02-15T17:57:13.927Z,9.45
2019-02-15T17:59:42.265Z,7.35
2019-02-15T18:02:10.587Z,7.60
2019-02-15T18:04:38.918Z,7.20
2019-02-15T18:07:07.363Z,7.42
2019-02-15T18:09:35.766Z,7.60
2019-02-15T18:12:04.260Z,10.68
2019-02-15T18:14:32.581Z,9.48
2019-02-15T18:17:02.176Z,8.53
2019-02-15T18:19:30.509Z,9.45
2019-02-15T18:21:58.830Z,8.48
2019-02-15T18:24:27.599Z,8.65
2019-02-15T18:26:55.920Z,8.40
2019-02-15T18:29:24.273Z,8.45
2019-02-15T18:31:52.666Z,7.97
2019-02-15T18:34:20.998Z,8.15
2019-02-15T18:36:49.314Z,8.50
2019-02-15T18:39:17.948Z,10.35
2019-02-15T18:41:46.277Z,9.95
2019-02-15T18:44:15.107Z,9.58
2019-02-15T18:46:43.602Z,9.50
2019-02-15T18:49:19.212Z,10.63
2019-02-15T18:51:42.172Z,9.53
2019-02-15T18:54:10.879Z,9.60
2019-02-15T18:56:39.257Z,9.23
2019-02-15T18:59:07.899Z,10.45
2019-02-15T19:01:36.396Z,10.18
2019-02-15T19:04:04.853Z,9.35
2019-02-15T19:06:35.065Z,9.08
2019-02-15T19:09:04.211Z,9.75
2019-02-15T19:11:32.872Z,11.10
2019-02-15T19:14:01.489Z,8.90
2019-02-15T19:16:30.025Z,8.83
2019-02-15T19:18:58.852Z,10.53
2019-02-15T19:21:39.709Z,11.50
2019-02-15T19:24:08.130Z,11.60
2019-02-15T19:26:36.767Z,12.18
2019-02-15T19:29:05.310Z,14.70
2019-02-15T19:31:35.442Z,15.30
2019-02-15T19:34:04.451Z,14.25
2019-02-15T19:36:32.936Z,15.23
2019-02-15T19:39:07.287Z,15.93
2019-02-15T19:41:35.668Z,15.32
2019-02-15T19:44:05.820Z,16.42
2019-02-15T19:46:34.309Z,15.95
2019-02-15T19:49:06.162Z,17.05
2019-02-15T19:51:36.290Z,18.40
2019-02-15T19:54:04.675Z,20.75
2019-02-15T19:56:36.071Z,21.00
2019-02-15T19:59:07.704Z,21.12
2019-02-15T20:01:36.101Z,22.80
2019-02-15T20:04:04.506Z,21.35
2019-02-15T20:06:33.409Z,22.87
2019-02-15T20:09:01.769Z,19.85
2019-02-15T20:11:30.123Z,19.32
2019-02-15T20:14:00.064Z,18.40
2019-02-15T20:16:28.831Z,18.55
2019-02-15T20:18:58.775Z,20.02
2019-02-15T20:21:30.371Z,18.85
2019-02-15T20:24:00.429Z,17.60
2019-02-15T20:26:30.417Z,15.23
2019-02-15T20:29:00.601Z,15.83
2019-02-15T20:31:28.993Z,15.03
2019-02-15T20:33:58.947Z,14.75
2019-02-15T20:36:29.600Z,15.53
2019-02-15T20:39:00.697Z,15.00
2019-02-15T20:41:30.700Z,14.03
2019-02-15T20:43:59.600Z,14.53
2019-02-15T20:46:29.762Z,14.38
2019-02-15T20:49:04.811Z,14.65
2019-02-15T20:51:46.114Z,15.45
2019-02-15T20:54:14.750Z,13.68
2019-02-15T20:56:43.258Z,13.90
2019-02-15T20:59:11.602Z,14.85
2019-02-15T21:01:41.596Z,14.85
2019-02-15T21:04:10.176Z,14.33
2019-02-15T21:06:38.555Z,13.70
2019-02-15T21:09:07.031Z,15.55
2019-02-15T21:11:35.665Z,15.25
2019-02-15T21:14:04.426Z,14.87
2019-02-15T21:16:33.025Z,14.83
2019-02-15T21:19:01.387Z,14.95
2019-02-15T21:21:29.840Z,15.32
2019-02-15T21:23:58.626Z,14.93
2019-02-15T21:26:27.252Z,16.07
2019-02-15T21:28:55.640Z,15.00
2019-02-15T21:31:24.436Z,15.50
2019-02-15T21:33:53.171Z,16.05
2019-02-15T21:36:21.781Z,16.07
2019-02-15T21:38:50.573Z,15.00
2019-02-15T21:41:19.287Z,15.40
2019-02-15T21:43:47.684Z,15.98
2019-02-15T21:46:16.104Z,14.75
2019-02-15T21:48:44.501Z,14.95
2019-02-15T21:51:13.029Z,14.30
2019-02-15T21:53:41.520Z,14.95
2019-02-15T21:56:10.133Z,16.32
2019-02-15T21:58:38.772Z,14.65
2019-02-15T22:01:07.479Z,15.65
2019-02-15T22:03:35.820Z,16.02
2019-02-15T22:06:04.402Z,17.90
2019-02-15T22:08:32.821Z,15.93
2019-02-15T22:11:01.444Z,16.70
2019-02-15T22:13:29.891Z,16.23
2019-02-15T22:15:58.420Z,15.98
2019-02-15T22:18:26.791Z,15.60
2019-02-15T22:20:55.631Z,14.50
2019-02-15T22:23:24.248Z,14.13
2019-02-15T22:25:52.646Z,13.28
2019-02-15T22:28:21.231Z,14.28
2019-02-15T22:30:49.591Z,13.20
2019-02-15T22:33:18.173Z,12.85
2019-02-15T22:35:46.520Z,12.85
2019-02-15T22:38:15.290Z,11.57
2019-02-15T22:40:44.130Z,11.40
2019-02-15T22:43:20.810Z,9.73
2019-02-15T22:45:49.232Z,11.70
2019-02-15T22:48:18.041Z,11.10
2019-02-15T22:50:46.505Z,11.68
2019-02-15T22:53:15.201Z,12.00
2019-02-15T22:55:43.679Z,10.85
2019-02-15T22:58:12.088Z,10.53
2019-02-15T23:00:50.744Z,11.25
2019-02-15T23:03:21.708Z,10.58
2019-02-15T23:05:50.165Z,10.93
2019-02-15T23:08:18.769Z,9.93
2019-02-15T23:10:47.387Z,10.65
2019-02-15T23:13:15.741Z,10.60
2019-02-15T23:15:44.382Z,11.25
2019-02-15T23:18:12.750Z,10.53
2019-02-15T23:20:45.231Z,11.22
2019-02-15T23:23:11.623Z,11.22
2019-02-15T23:25:39.941Z,10.48
2019-02-15T23:28:08.328Z,10.15
2019-02-15T23:30:36.716Z,10.15
2019-02-15T23:33:05.063Z,10.15
2019-02-15T23:35:33.378Z,10.28
2019-02-15T23:38:01.728Z,11.20
2019-02-15T23:40:30.543Z,9.90
2019-02-15T23:42:58.912Z,10.25
2019-02-15T23:45:27.866Z,10.35
2019-02-15T23:47:56.231Z,9.50
2019-02-15T23:50:25.065Z,9.03
2019-02-15T23:52:53.544Z,9.88
2019-02-15T23:55:22.046Z,9.75
2019-02-15T23:57:50.356Z,10.25
